sensor_id;sensor_type;location;lat;lon;timestamp;P1;durP1;ratioP1;P2;durP2;ratioP2
19059;SDS011;9663;48.996;8.334;2022-10-30T00:00:41;7.22;;;2.13;;
19059;SDS011;9663;48.996;8.334;2022-10-30T00:03:13;5.90;;;2.20;;
19059;SDS011;9663;48.996;8.334;2022-10-30T00:05:44;5.38;;;2.10;;
19059;SDS011;9663;48.996;8.334;2022-10-30T00:08:14;6.53;;;2.20;;
19059;SDS011;9663;48.996;8.334;2022-10-30T00:10:43;6.68;;;2.53;;
19059;SDS011;9663;48.996;8.334;2022-10-30T00:13:10;4.68;;;1.98;;
19059;SDS011;9663;48.996;8.334;2022-10-30T00:15:36;6.68;;;1.90;;
19059;SDS011;9663;48.996;8.334;2022-10-30T00:18:02;8.95;;;2.92;;
19059;SDS011;9663;48.996;8.334;2022-10-30T00:20:28;8.68;;;2.40;;
19059;SDS011;9663;48.996;8.334;2022-10-30T00:22:54;6.28;;;2.30;;
19059;SDS011;9663;48.996;8.334;2022-10-30T00:25:20;5.88;;;2.03;;
19059;SDS011;9663;48.996;8.334;2022-10-30T00:27:45;6.90;;;2.20;;
19059;SDS011;9663;48.996;8.334;2022-10-30T00:30:11;4.93;;;1.90;;
19059;SDS011;9663;48.996;8.334;2022-10-30T00:32:39;4.88;;;2.15;;
19059;SDS011;9663;48.996;8.334;2022-10-30T00:35:06;6.20;;;1.73;;
19059;SDS011;9663;48.996;8.334;2022-10-30T00:37:34;6.45;;;2.10;;
19059;SDS011;9663;48.996;8.334;2022-10-30T00:39:59;5.03;;;2.00;;
19059;SDS011;9663;48.996;8.334;2022-10-30T00:42:27;5.53;;;2.10;;
19059;SDS011;9663;48.996;8.334;2022-10-30T00:44:55;4.97;;;2.58;;
19059;SDS011;9663;48.996;8.334;2022-10-30T00:47:28;7.47;;;2.00;;
19059;SDS011;9663;48.996;8.334;2022-10-30T00:50:05;4.50;;;1.92;;
19059;SDS011;9663;48.996;8.334;2022-10-30T00:52:33;5.00;;;1.83;;
19059;SDS011;9663;48.996;8.334;2022-10-30T00:55:13;6.70;;;1.80;;
19059;SDS011;9663;48.996;8.334;2022-10-30T00:57:44;5.15;;;1.98;;
19059;SDS011;9663;48.996;8.334;2022-10-30T01:00:12;4.95;;;1.80;;
19059;SDS011;9663;48.996;8.334;2022-10-30T01:02:39;6.68;;;2.20;;
19059;SDS011;9663;48.996;8.334;2022-10-30T01:05:08;4.95;;;2.10;;
19059;SDS011;9663;48.996;8.334;2022-10-30T01:07:39;6.25;;;2.42;;
19059;SDS011;9663;48.996;8.334;2022-10-30T01:10:05;5.68;;;2.10;;
19059;SDS011;9663;48.996;8.334;2022-10-30T01:12:32;7.03;;;1.98;;
19059;SDS011;9663;48.996;8.334;2022-10-30T01:14:58;5.50;;;2.05;;
19059;SDS011;9663;48.996;8.334;2022-10-30T01:27:08;6.38;;;1.90;;
19059;SDS011;9663;48.996;8.334;2022-10-30T01:38:56;4.60;;;1.67;;
19059;SDS011;9663;48.996;8.334;2022-10-30T01:41:39;4.68;;;2.03;;
19059;SDS011;9663;48.996;8.334;2022-10-30T01:44:06;4.40;;;1.80;;
19059;SDS011;9663;48.996;8.334;2022-10-30T01:55:25;5.03;;;2.17;;
19059;SDS011;9663;48.996;8.334;2022-10-30T02:00:55;3.92;;;1.60;;
19059;SDS011;9663;48.996;8.334;2022-10-30T02:03:23;5.07;;;2.13;;
19059;SDS011;9663;48.996;8.334;2022-10-30T02:05:52;5.22;;;2.05;;
19059;SDS011;9663;48.996;8.334;2022-10-30T02:08:19;4.45;;;1.67;;
19059;SDS011;9663;48.996;8.334;2022-10-30T02:10:46;4.43;;;1.83;;
19059;SDS011;9663;48.996;8.334;2022-10-30T02:13:16;6.13;;;1.92;;
19059;SDS011;9663;48.996;8.334;2022-10-30T02:15:42;6.72;;;1.92;;
19059;SDS011;9663;48.996;8.334;2022-10-30T02:18:09;5.20;;;2.17;;
19059;SDS011;9663;48.996;8.334;2022-10-30T02:20:35;5.35;;;1.92;;
19059;SDS011;9663;48.996;8.334;2022-10-30T02:23:02;4.28;;;1.90;;
19059;SDS011;9663;48.996;8.334;2022-10-30T02:25:28;6.90;;;2.17;;
19059;SDS011;9663;48.996;8.334;2022-10-30T02:27:54;5.45;;;1.70;;
19059;SDS011;9663;48.996;8.334;2022-10-30T02:30:19;5.50;;;2.38;;
19059;SDS011;9663;48.996;8.334;2022-10-30T02:32:45;4.18;;;1.75;;
19059;SDS011;9663;48.996;8.334;2022-10-30T02:35:11;8.13;;;1.80;;
19059;SDS011;9663;48.996;8.334;2022-10-30T02:37:37;4.45;;;1.92;;
19059;SDS011;9663;48.996;8.334;2022-10-30T02:40:03;4.35;;;1.95;;
19059;SDS011;9663;48.996;8.334;2022-10-30T02:42:32;6.05;;;1.83;;
19059;SDS011;9663;48.996;8.334;2022-10-30T02:44:59;5.97;;;1.75;;
19059;SDS011;9663;48.996;8.334;2022-10-30T02:47:24;5.90;;;2.08;;
19059;SDS011;9663;48.996;8.334;2022-10-30T02:49:52;4.85;;;2.17;;
19059;SDS011;9663;48.996;8.334;2022-10-30T02:52:18;7.07;;;1.90;;
19059;SDS011;9663;48.996;8.334;2022-10-30T02:54:43;4.53;;;1.83;;
19059;SDS011;9663;48.996;8.334;2022-10-30T02:57:09;6.10;;;1.63;;
19059;SDS011;9663;48.996;8.334;2022-10-30T02:59:35;6.38;;;2.05;;
19059;SDS011;9663;48.996;8.334;2022-10-30T03:02:01;5.25;;;1.98;;
19059;SDS011;9663;48.996;8.334;2022-10-30T03:04:26;5.32;;;1.92;;
19059;SDS011;9663;48.996;8.334;2022-10-30T03:06:52;4.20;;;1.65;;
19059;SDS011;9663;48.996;8.334;2022-10-30T03:09:18;4.90;;;1.52;;
19059;SDS011;9663;48.996;8.334;2022-10-30T03:11:44;5.57;;;1.73;;
19059;SDS011;9663;48.996;8.334;2022-10-30T03:14:10;7.82;;;1.80;;
19059;SDS011;9663;48.996;8.334;2022-10-30T03:16:35;5.95;;;1.52;;
19059;SDS011;9663;48.996;8.334;2022-10-30T03:19:02;7.10;;;2.00;;
19059;SDS011;9663;48.996;8.334;2022-10-30T03:21:28;5.75;;;1.70;;
19059;SDS011;9663;48.996;8.334;2022-10-30T03:23:54;3.83;;;1.45;;
19059;SDS011;9663;48.996;8.334;2022-10-30T03:26:21;4.30;;;1.70;;
19059;SDS011;9663;48.996;8.334;2022-10-30T03:28:47;5.57;;;1.95;;
19059;SDS011;9663;48.996;8.334;2022-10-30T03:31:14;4.60;;;1.75;;
19059;SDS011;9663;48.996;8.334;2022-10-30T03:33:43;4.50;;;1.90;;
19059;SDS011;9663;48.996;8.334;2022-10-30T03:36:10;6.13;;;2.00;;
19059;SDS011;9663;48.996;8.334;2022-10-30T03:38:38;4.78;;;1.88;;
19059;SDS011;9663;48.996;8.334;2022-10-30T03:41:04;4.70;;;1.80;;
19059;SDS011;9663;48.996;8.334;2022-10-30T03:43:30;4.82;;;2.10;;
19059;SDS011;9663;48.996;8.334;2022-10-30T03:45:56;5.15;;;1.80;;
19059;SDS011;9663;48.996;8.334;2022-10-30T03:48:23;5.03;;;1.42;;
19059;SDS011;9663;48.996;8.334;2022-10-30T03:50:52;6.05;;;1.60;;
19059;SDS011;9663;48.996;8.334;2022-10-30T03:53:19;4.13;;;1.50;;
19059;SDS011;9663;48.996;8.334;2022-10-30T03:55:47;4.38;;;1.70;;
19059;SDS011;9663;48.996;8.334;2022-10-30T03:58:14;4.35;;;1.80;;
19059;SDS011;9663;48.996;8.334;2022-10-30T04:00:40;4.00;;;1.55;;
19059;SDS011;9663;48.996;8.334;2022-10-30T04:03:06;4.47;;;1.50;;
19059;SDS011;9663;48.996;8.334;2022-10-30T04:05:34;4.50;;;1.65;;
19059;SDS011;9663;48.996;8.334;2022-10-30T04:08:02;4.20;;;1.90;;
19059;SDS011;9663;48.996;8.334;2022-10-30T04:10:31;4.43;;;1.40;;
19059;SDS011;9663;48.996;8.334;2022-10-30T04:13:02;3.17;;;1.27;;
19059;SDS011;9663;48.996;8.334;2022-10-30T04:15:31;4.05;;;1.48;;
19059;SDS011;9663;48.996;8.334;2022-10-30T04:17:57;4.70;;;1.65;;
19059;SDS011;9663;48.996;8.334;2022-10-30T04:20:24;4.80;;;1.63;;
19059;SDS011;9663;48.996;8.334;2022-10-30T04:22:59;5.70;;;1.42;;
19059;SDS011;9663;48.996;8.334;2022-10-30T04:25:28;5.18;;;1.67;;
19059;SDS011;9663;48.996;8.334;2022-10-30T04:27:55;4.25;;;1.48;;
19059;SDS011;9663;48.996;8.334;2022-10-30T04:30:21;5.70;;;1.52;;
19059;SDS011;9663;48.996;8.334;2022-10-30T04:32:58;4.00;;;1.50;;
19059;SDS011;9663;48.996;8.334;2022-10-30T04:35:25;4.95;;;1.70;;
19059;SDS011;9663;48.996;8.334;2022-10-30T04:37:55;3.75;;;1.40;;
19059;SDS011;9663;48.996;8.334;2022-10-30T04:40:23;3.92;;;1.52;;
19059;SDS011;9663;48.996;8.334;2022-10-30T04:42:51;4.35;;;1.52;;
19059;SDS011;9663;48.996;8.334;2022-10-30T04:45:18;5.22;;;1.67;;
19059;SDS011;9663;48.996;8.334;2022-10-30T04:47:44;4.03;;;1.60;;
19059;SDS011;9663;48.996;8.334;2022-10-30T04:50:11;5.70;;;1.70;;
19059;SDS011;9663;48.996;8.334;2022-10-30T04:52:37;4.82;;;1.70;;
19059;SDS011;9663;48.996;8.334;2022-10-30T04:55:05;4.53;;;1.60;;
19059;SDS011;9663;48.996;8.334;2022-10-30T04:57:32;4.00;;;1.60;;
19059;SDS011;9663;48.996;8.334;2022-10-30T04:59:58;4.47;;;1.50;;
19059;SDS011;9663;48.996;8.334;2022-10-30T05:02:24;5.15;;;1.70;;
19059;SDS011;9663;48.996;8.334;2022-10-30T05:04:50;4.35;;;1.50;;
19059;SDS011;9663;48.996;8.334;2022-10-30T05:07:16;3.70;;;1.35;;
19059;SDS011;9663;48.996;8.334;2022-10-30T05:09:42;5.47;;;1.58;;
19059;SDS011;9663;48.996;8.334;2022-10-30T05:12:08;4.78;;;1.50;;
19059;SDS011;9663;48.996;8.334;2022-10-30T05:14:35;4.10;;;1.73;;
19059;SDS011;9663;48.996;8.334;2022-10-30T05:17:01;5.43;;;1.88;;
19059;SDS011;9663;48.996;8.334;2022-10-30T05:19:26;4.47;;;1.48;;
19059;SDS011;9663;48.996;8.334;2022-10-30T05:21:52;4.93;;;1.70;;
19059;SDS011;9663;48.996;8.334;2022-10-30T05:24:18;4.10;;;1.60;;
19059;SDS011;9663;48.996;8.334;2022-10-30T05:26:43;3.88;;;1.17;;
19059;SDS011;9663;48.996;8.334;2022-10-30T05:29:10;5.68;;;1.50;;
19059;SDS011;9663;48.996;8.334;2022-10-30T05:31:36;4.85;;;1.42;;
19059;SDS011;9663;48.996;8.334;2022-10-30T05:34:02;3.80;;;1.50;;
19059;SDS011;9663;48.996;8.334;2022-10-30T05:36:28;4.00;;;1.40;;
19059;SDS011;9663;48.996;8.334;2022-10-30T05:38:54;4.38;;;1.20;;
19059;SDS011;9663;48.996;8.334;2022-10-30T05:41:19;3.95;;;1.60;;
19059;SDS011;9663;48.996;8.334;2022-10-30T05:43:45;3.75;;;1.58;;
19059;SDS011;9663;48.996;8.334;2022-10-30T05:46:11;5.32;;;1.50;;
19059;SDS011;9663;48.996;8.334;2022-10-30T05:48:36;4.88;;;1.60;;
19059;SDS011;9663;48.996;8.334;2022-10-30T05:51:02;4.95;;;1.17;;
19059;SDS011;9663;48.996;8.334;2022-10-30T05:53:30;3.88;;;1.48;;
19059;SDS011;9663;48.996;8.334;2022-10-30T05:55:57;3.75;;;1.40;;
19059;SDS011;9663;48.996;8.334;2022-10-30T05:58:23;3.35;;;1.38;;
19059;SDS011;9663;48.996;8.334;2022-10-30T06:00:50;4.90;;;1.27;;
19059;SDS011;9663;48.996;8.334;2022-10-30T06:03:16;4.82;;;1.70;;
19059;SDS011;9663;48.996;8.334;2022-10-30T06:05:43;3.97;;;1.30;;
19059;SDS011;9663;48.996;8.334;2022-10-30T06:08:10;4.28;;;1.40;;
19059;SDS011;9663;48.996;8.334;2022-10-30T06:10:37;4.82;;;1.30;;
19059;SDS011;9663;48.996;8.334;2022-10-30T06:13:04;3.75;;;1.50;;
19059;SDS011;9663;48.996;8.334;2022-10-30T06:15:31;3.70;;;1.40;;
19059;SDS011;9663;48.996;8.334;2022-10-30T06:17:57;3.55;;;1.10;;
19059;SDS011;9663;48.996;8.334;2022-10-30T06:20:25;4.70;;;1.45;;
19059;SDS011;9663;48.996;8.334;2022-10-30T06:22:58;5.18;;;1.70;;
19059;SDS011;9663;48.996;8.334;2022-10-30T06:25:30;3.97;;;1.35;;
19059;SDS011;9663;48.996;8.334;2022-10-30T06:27:57;3.58;;;1.38;;
19059;SDS011;9663;48.996;8.334;2022-10-30T06:30:24;3.67;;;1.45;;
19059;SDS011;9663;48.996;8.334;2022-10-30T06:33:00;3.35;;;1.30;;
19059;SDS011;9663;48.996;8.334;2022-10-30T06:35:28;4.07;;;1.40;;
19059;SDS011;9663;48.996;8.334;2022-10-30T06:37:55;6.55;;;1.65;;
19059;SDS011;9663;48.996;8.334;2022-10-30T06:40:24;3.65;;;1.23;;
19059;SDS011;9663;48.996;8.334;2022-10-30T06:42:51;5.32;;;1.90;;
19059;SDS011;9663;48.996;8.334;2022-10-30T06:45:18;5.22;;;1.52;;
19059;SDS011;9663;48.996;8.334;2022-10-30T06:47:46;5.35;;;1.30;;
19059;SDS011;9663;48.996;8.334;2022-10-30T06:50:13;4.78;;;1.42;;
19059;SDS011;9663;48.996;8.334;2022-10-30T06:52:42;4.70;;;1.45;;
19059;SDS011;9663;48.996;8.334;2022-10-30T06:55:08;4.15;;;1.30;;
19059;SDS011;9663;48.996;8.334;2022-10-30T06:57:35;4.60;;;1.40;;
19059;SDS011;9663;48.996;8.334;2022-10-30T07:00:02;4.53;;;1.48;;
19059;SDS011;9663;48.996;8.334;2022-10-30T07:02:30;4.20;;;1.58;;
19059;SDS011;9663;48.996;8.334;2022-10-30T07:04:56;6.45;;;1.90;;
19059;SDS011;9663;48.996;8.334;2022-10-30T07:07:22;4.13;;;1.52;;
19059;SDS011;9663;48.996;8.334;2022-10-30T07:09:48;4.32;;;1.48;;
19059;SDS011;9663;48.996;8.334;2022-10-30T07:12:14;3.50;;;1.17;;
19059;SDS011;9663;48.996;8.334;2022-10-30T07:14:39;3.38;;;1.27;;
19059;SDS011;9663;48.996;8.334;2022-10-30T07:17:05;4.72;;;1.48;;
19059;SDS011;9663;48.996;8.334;2022-10-30T07:19:32;3.85;;;1.60;;
19059;SDS011;9663;48.996;8.334;2022-10-30T07:21:57;4.20;;;1.65;;
19059;SDS011;9663;48.996;8.334;2022-10-30T07:24:24;6.20;;;1.70;;
19059;SDS011;9663;48.996;8.334;2022-10-30T07:26:50;6.10;;;1.60;;
19059;SDS011;9663;48.996;8.334;2022-10-30T07:29:16;4.65;;;1.33;;
19059;SDS011;9663;48.996;8.334;2022-10-30T07:31:41;4.05;;;1.50;;
19059;SDS011;9663;48.996;8.334;2022-10-30T07:34:10;4.85;;;1.73;;
19059;SDS011;9663;48.996;8.334;2022-10-30T07:36:36;4.40;;;1.63;;
19059;SDS011;9663;48.996;8.334;2022-10-30T07:39:01;6.63;;;1.70;;
19059;SDS011;9663;48.996;8.334;2022-10-30T07:41:27;3.60;;;1.55;;
19059;SDS011;9663;48.996;8.334;2022-10-30T07:43:53;4.47;;;1.50;;
19059;SDS011;9663;48.996;8.334;2022-10-30T07:46:18;4.10;;;1.67;;
19059;SDS011;9663;48.996;8.334;2022-10-30T07:48:44;4.30;;;1.95;;
19059;SDS011;9663;48.996;8.334;2022-10-30T07:51:10;4.70;;;1.40;;
19059;SDS011;9663;48.996;8.334;2022-10-30T07:53:35;3.75;;;1.38;;
19059;SDS011;9663;48.996;8.334;2022-10-30T07:56:01;4.30;;;1.65;;
19059;SDS011;9663;48.996;8.334;2022-10-30T07:58:27;5.65;;;1.85;;
19059;SDS011;9663;48.996;8.334;2022-10-30T08:00:52;4.95;;;1.55;;
19059;SDS011;9663;48.996;8.334;2022-10-30T08:03:18;5.82;;;1.80;;
19059;SDS011;9663;48.996;8.334;2022-10-30T08:05:44;4.80;;;1.70;;
19059;SDS011;9663;48.996;8.334;2022-10-30T08:08:09;3.72;;;1.50;;
19059;SDS011;9663;48.996;8.334;2022-10-30T08:10:35;6.13;;;1.65;;
19059;SDS011;9663;48.996;8.334;2022-10-30T08:13:01;5.90;;;1.60;;
19059;SDS011;9663;48.996;8.334;2022-10-30T08:15:27;3.67;;;1.45;;
19059;SDS011;9663;48.996;8.334;2022-10-30T08:17:53;3.25;;;1.27;;
19059;SDS011;9663;48.996;8.334;2022-10-30T08:20:20;6.45;;;1.70;;
19059;SDS011;9663;48.996;8.334;2022-10-30T08:22:48;4.43;;;1.92;;
19059;SDS011;9663;48.996;8.334;2022-10-30T08:25:21;4.18;;;1.67;;
19059;SDS011;9663;48.996;8.334;2022-10-30T08:27:57;6.00;;;1.55;;
19059;SDS011;9663;48.996;8.334;2022-10-30T08:30:29;5.40;;;2.25;;
19059;SDS011;9663;48.996;8.334;2022-10-30T08:32:59;4.63;;;1.73;;
19059;SDS011;9663;48.996;8.334;2022-10-30T08:35:27;3.72;;;1.63;;
19059;SDS011;9663;48.996;8.334;2022-10-30T08:37:54;6.57;;;2.10;;
19059;SDS011;9663;48.996;8.334;2022-10-30T08:40:25;4.35;;;1.85;;
19059;SDS011;9663;48.996;8.334;2022-10-30T08:42:51;6.43;;;1.80;;
19059;SDS011;9663;48.996;8.334;2022-10-30T08:45:19;5.50;;;1.83;;
19059;SDS011;9663;48.996;8.334;2022-10-30T08:47:46;4.35;;;1.58;;
19059;SDS011;9663;48.996;8.334;2022-10-30T08:50:12;5.05;;;1.75;;
19059;SDS011;9663;48.996;8.334;2022-10-30T08:52:38;3.85;;;1.52;;
19059;SDS011;9663;48.996;8.334;2022-10-30T08:55:04;4.63;;;1.55;;
19059;SDS011;9663;48.996;8.334;2022-10-30T08:57:34;3.90;;;1.50;;
19059;SDS011;9663;48.996;8.334;2022-10-30T09:00:01;4.07;;;1.45;;
19059;SDS011;9663;48.996;8.334;2022-10-30T09:02:30;4.95;;;1.75;;
19059;SDS011;9663;48.996;8.334;2022-10-30T09:04:57;3.70;;;1.30;;
19059;SDS011;9663;48.996;8.334;2022-10-30T09:07:22;5.88;;;2.03;;
19059;SDS011;9663;48.996;8.334;2022-10-30T09:09:48;5.38;;;1.70;;
19059;SDS011;9663;48.996;8.334;2022-10-30T09:12:14;4.90;;;1.88;;
19059;SDS011;9663;48.996;8.334;2022-10-30T09:14:40;4.53;;;1.70;;
19059;SDS011;9663;48.996;8.334;2022-10-30T09:17:06;5.93;;;1.98;;
19059;SDS011;9663;48.996;8.334;2022-10-30T09:19:32;4.20;;;1.77;;
19059;SDS011;9663;48.996;8.334;2022-10-30T09:21:58;3.47;;;1.60;;
19059;SDS011;9663;48.996;8.334;2022-10-30T09:24:23;6.25;;;1.52;;
19059;SDS011;9663;48.996;8.334;2022-10-30T09:26:49;4.15;;;1.67;;
19059;SDS011;9663;48.996;8.334;2022-10-30T09:29:15;4.13;;;1.33;;
19059;SDS011;9663;48.996;8.334;2022-10-30T09:31:41;5.72;;;1.77;;
19059;SDS011;9663;48.996;8.334;2022-10-30T09:34:06;4.60;;;1.77;;
19059;SDS011;9663;48.996;8.334;2022-10-30T09:36:32;4.60;;;1.73;;
19059;SDS011;9663;48.996;8.334;2022-10-30T09:38:59;4.55;;;1.63;;
19059;SDS011;9663;48.996;8.334;2022-10-30T09:53:21;8.43;;;1.77;;
19059;SDS011;9663;48.996;8.334;2022-10-30T09:56:14;3.95;;;1.52;;
19059;SDS011;9663;48.996;8.334;2022-10-30T10:01:30;4.78;;;1.65;;
19059;SDS011;9663;48.996;8.334;2022-10-30T10:06:59;4.53;;;1.65;;
19059;SDS011;9663;48.996;8.334;2022-10-30T10:10:04;5.57;;;1.60;;
19059;SDS011;9663;48.996;8.334;2022-10-30T10:12:44;5.70;;;1.90;;
19059;SDS011;9663;48.996;8.334;2022-10-30T10:18:56;6.15;;;1.75;;
19059;SDS011;9663;48.996;8.334;2022-10-30T10:21:23;5.15;;;1.80;;
19059;SDS011;9663;48.996;8.334;2022-10-30T10:23:59;4.68;;;1.60;;
19059;SDS011;9663;48.996;8.334;2022-10-30T10:44:19;6.07;;;1.60;;
19059;SDS011;9663;48.996;8.334;2022-10-30T10:47:28;4.40;;;1.50;;
19059;SDS011;9663;48.996;8.334;2022-10-30T10:53:11;4.80;;;1.45;;
19059;SDS011;9663;48.996;8.334;2022-10-30T10:56:11;3.78;;;1.60;;
19059;SDS011;9663;48.996;8.334;2022-10-30T10:58:40;10.38;;;1.98;;
19059;SDS011;9663;48.996;8.334;2022-10-30T11:01:30;4.75;;;1.88;;
19059;SDS011;9663;48.996;8.334;2022-10-30T11:04:18;3.65;;;1.50;;
19059;SDS011;9663;48.996;8.334;2022-10-30T11:07:09;6.40;;;1.52;;
19059;SDS011;9663;48.996;8.334;2022-10-30T11:09:54;4.75;;;1.65;;
19059;SDS011;9663;48.996;8.334;2022-10-30T11:12:24;3.88;;;1.48;;
19059;SDS011;9663;48.996;8.334;2022-10-30T11:14:54;6.07;;;1.70;;
19059;SDS011;9663;48.996;8.334;2022-10-30T11:17:23;4.53;;;1.70;;
19059;SDS011;9663;48.996;8.334;2022-10-30T11:23:34;3.83;;;1.67;;
19059;SDS011;9663;48.996;8.334;2022-10-30T11:26:23;6.10;;;1.92;;
19059;SDS011;9663;48.996;8.334;2022-10-30T11:29:03;4.40;;;1.60;;
19059;SDS011;9663;48.996;8.334;2022-10-30T11:31:41;3.70;;;1.40;;
19059;SDS011;9663;48.996;8.334;2022-10-30T11:36:44;3.90;;;1.50;;
19059;SDS011;9663;48.996;8.334;2022-10-30T11:39:17;3.55;;;1.50;;
19059;SDS011;9663;48.996;8.334;2022-10-30T11:44:30;4.75;;;1.60;;
19059;SDS011;9663;48.996;8.334;2022-10-30T11:47:05;4.22;;;1.70;;
19059;SDS011;9663;48.996;8.334;2022-10-30T11:52:21;4.22;;;1.60;;
19059;SDS011;9663;48.996;8.334;2022-10-30T11:58:16;4.90;;;1.83;;
19059;SDS011;9663;48.996;8.334;2022-10-30T12:01:13;3.58;;;1.50;;
19059;SDS011;9663;48.996;8.334;2022-10-30T12:03:47;3.88;;;1.38;;
19059;SDS011;9663;48.996;8.334;2022-10-30T12:11:46;3.90;;;1.70;;
19059;SDS011;9663;48.996;8.334;2022-10-30T12:14:21;4.75;;;1.88;;
19059;SDS011;9663;48.996;8.334;2022-10-30T12:16:51;4.35;;;1.80;;
19059;SDS011;9663;48.996;8.334;2022-10-30T12:19:21;5.63;;;1.42;;
19059;SDS011;9663;48.996;8.334;2022-10-30T12:21:50;4.47;;;1.60;;
19059;SDS011;9663;48.996;8.334;2022-10-30T12:24:28;4.32;;;1.52;;
19059;SDS011;9663;48.996;8.334;2022-10-30T12:27:12;4.80;;;1.67;;
19059;SDS011;9663;48.996;8.334;2022-10-30T12:29:54;4.40;;;1.40;;
19059;SDS011;9663;48.996;8.334;2022-10-30T12:38:05;5.88;;;1.90;;
19059;SDS011;9663;48.996;8.334;2022-10-30T12:40:42;4.90;;;1.52;;
19059;SDS011;9663;48.996;8.334;2022-10-30T12:46:35;3.90;;;1.50;;
19059;SDS011;9663;48.996;8.334;2022-10-30T12:52:04;4.05;;;1.70;;
19059;SDS011;9663;48.996;8.334;2022-10-30T13:00:51;3.63;;;1.25;;
19059;SDS011;9663;48.996;8.334;2022-10-30T13:06:27;3.78;;;1.10;;
19059;SDS011;9663;48.996;8.334;2022-10-30T13:11:41;5.38;;;1.20;;
19059;SDS011;9663;48.996;8.334;2022-10-30T13:14:19;3.75;;;1.20;;
19059;SDS011;9663;48.996;8.334;2022-10-30T13:17:02;4.32;;;1.25;;
19059;SDS011;9663;48.996;8.334;2022-10-30T13:19:34;4.93;;;1.40;;
19059;SDS011;9663;48.996;8.334;2022-10-30T13:22:03;3.95;;;1.48;;
19059;SDS011;9663;48.996;8.334;2022-10-30T13:30:16;3.50;;;1.23;;
19059;SDS011;9663;48.996;8.334;2022-10-30T13:35:32;4.45;;;1.23;;
19059;SDS011;9663;48.996;8.334;2022-10-30T13:38:27;5.45;;;1.50;;
19059;SDS011;9663;48.996;8.334;2022-10-30T13:41:31;4.50;;;1.30;;
19059;SDS011;9663;48.996;8.334;2022-10-30T13:53:04;3.92;;;1.40;;
19059;SDS011;9663;48.996;8.334;2022-10-30T13:55:39;4.38;;;1.20;;
19059;SDS011;9663;48.996;8.334;2022-10-30T13:58:09;3.92;;;1.20;;
19059;SDS011;9663;48.996;8.334;2022-10-30T14:00:55;3.47;;;1.30;;
19059;SDS011;9663;48.996;8.334;2022-10-30T14:03:41;4.97;;;1.33;;
19059;SDS011;9663;48.996;8.334;2022-10-30T14:06:30;3.72;;;1.50;;
19059;SDS011;9663;48.996;8.334;2022-10-30T14:16:00;5.05;;;1.80;;
19059;SDS011;9663;48.996;8.334;2022-10-30T14:20:41;3.53;;;1.30;;
19059;SDS011;9663;48.996;8.334;2022-10-30T14:28:40;5.63;;;1.75;;
19059;SDS011;9663;48.996;8.334;2022-10-30T14:31:12;4.25;;;1.55;;
19059;SDS011;9663;48.996;8.334;2022-10-30T14:33:43;4.53;;;1.60;;
19059;SDS011;9663;48.996;8.334;2022-10-30T14:36:17;4.55;;;1.50;;
19059;SDS011;9663;48.996;8.334;2022-10-30T14:47:45;4.40;;;1.67;;
19059;SDS011;9663;48.996;8.334;2022-10-30T15:01:46;4.35;;;1.70;;
19059;SDS011;9663;48.996;8.334;2022-10-30T15:10:31;5.45;;;1.80;;
19059;SDS011;9663;48.996;8.334;2022-10-30T15:13:13;4.57;;;1.65;;
19059;SDS011;9663;48.996;8.334;2022-10-30T15:15:58;4.18;;;1.60;;
19059;SDS011;9663;48.996;8.334;2022-10-30T15:18:29;4.03;;;1.60;;
19059;SDS011;9663;48.996;8.334;2022-10-30T15:20:55;4.05;;;1.30;;
19059;SDS011;9663;48.996;8.334;2022-10-30T15:23:32;3.95;;;1.38;;
19059;SDS011;9663;48.996;8.334;2022-10-30T15:26:04;5.15;;;1.55;;
19059;SDS011;9663;48.996;8.334;2022-10-30T15:28:40;5.30;;;1.42;;
19059;SDS011;9663;48.996;8.334;2022-10-30T15:31:13;4.47;;;1.70;;
19059;SDS011;9663;48.996;8.334;2022-10-30T15:33:50;4.28;;;1.80;;
19059;SDS011;9663;48.996;8.334;2022-10-30T15:36:19;4.28;;;1.52;;
19059;SDS011;9663;48.996;8.334;2022-10-30T15:39:11;4.30;;;1.50;;
19059;SDS011;9663;48.996;8.334;2022-10-30T15:41:44;6.53;;;1.80;;
19059;SDS011;9663;48.996;8.334;2022-10-30T15:44:28;4.93;;;1.67;;
19059;SDS011;9663;48.996;8.334;2022-10-30T15:46:58;7.95;;;2.45;;
19059;SDS011;9663;48.996;8.334;2022-10-30T15:51:58;5.55;;;2.15;;
19059;SDS011;9663;48.996;8.334;2022-10-30T15:54:40;4.35;;;1.80;;
19059;SDS011;9663;48.996;8.334;2022-10-30T15:58:10;5.43;;;1.85;;
19059;SDS011;9663;48.996;8.334;2022-10-30T16:00:17;5.18;;;2.10;;
19059;SDS011;9663;48.996;8.334;2022-10-30T16:02:58;5.13;;;2.22;;
19059;SDS011;9663;48.996;8.334;2022-10-30T16:05:38;6.78;;;2.33;;
19059;SDS011;9663;48.996;8.334;2022-10-30T16:08:09;6.60;;;2.28;;
19059;SDS011;9663;48.996;8.334;2022-10-30T16:10:44;6.82;;;2.63;;
19059;SDS011;9663;48.996;8.334;2022-10-30T16:13:17;7.50;;;2.70;;
19059;SDS011;9663;48.996;8.334;2022-10-30T16:15:47;6.13;;;2.47;;
19059;SDS011;9663;48.996;8.334;2022-10-30T16:18:21;6.20;;;2.60;;
19059;SDS011;9663;48.996;8.334;2022-10-30T16:20:56;6.68;;;2.50;;
19059;SDS011;9663;48.996;8.334;2022-10-30T16:23:29;4.68;;;2.00;;
19059;SDS011;9663;48.996;8.334;2022-10-30T16:26:30;7.35;;;3.25;;
19059;SDS011;9663;48.996;8.334;2022-10-30T16:31:37;12.05;;;6.10;;
19059;SDS011;9663;48.996;8.334;2022-10-30T16:34:08;10.98;;;6.07;;
19059;SDS011;9663;48.996;8.334;2022-10-30T16:36:42;13.43;;;6.93;;
19059;SDS011;9663;48.996;8.334;2022-10-30T16:39:12;14.48;;;7.30;;
19059;SDS011;9663;48.996;8.334;2022-10-30T16:41:42;12.95;;;6.85;;
19059;SDS011;9663;48.996;8.334;2022-10-30T16:46:50;14.43;;;8.25;;
19059;SDS011;9663;48.996;8.334;2022-10-30T16:49:47;11.25;;;6.80;;
19059;SDS011;9663;48.996;8.334;2022-10-30T16:52:19;13.15;;;7.80;;
19059;SDS011;9663;48.996;8.334;2022-10-30T16:57:34;16.10;;;8.27;;
19059;SDS011;9663;48.996;8.334;2022-10-30T17:00:06;13.82;;;8.20;;
19059;SDS011;9663;48.996;8.334;2022-10-30T17:02:46;14.38;;;7.20;;
19059;SDS011;9663;48.996;8.334;2022-10-30T17:07:58;12.60;;;5.72;;
19059;SDS011;9663;48.996;8.334;2022-10-30T17:13:38;9.05;;;4.18;;
19059;SDS011;9663;48.996;8.334;2022-10-30T17:18:54;8.50;;;4.22;;
19059;SDS011;9663;48.996;8.334;2022-10-30T17:21:47;10.43;;;6.03;;
19059;SDS011;9663;48.996;8.334;2022-10-30T17:24:17;12.90;;;6.85;;
19059;SDS011;9663;48.996;8.334;2022-10-30T17:26:54;9.57;;;5.85;;
19059;SDS011;9663;48.996;8.334;2022-10-30T17:32:10;11.13;;;6.50;;
19059;SDS011;9663;48.996;8.334;2022-10-30T17:34:46;10.57;;;5.38;;
19059;SDS011;9663;48.996;8.334;2022-10-30T17:37:18;9.43;;;4.90;;
19059;SDS011;9663;48.996;8.334;2022-10-30T17:39:44;11.80;;;5.20;;
19059;SDS011;9663;48.996;8.334;2022-10-30T17:42:10;9.70;;;4.63;;
19059;SDS011;9663;48.996;8.334;2022-10-30T17:44:35;9.05;;;4.38;;
19059;SDS011;9663;48.996;8.334;2022-10-30T17:47:17;8.65;;;3.70;;
19059;SDS011;9663;48.996;8.334;2022-10-30T17:49:44;6.15;;;3.17;;
19059;SDS011;9663;48.996;8.334;2022-10-30T17:52:11;7.35;;;2.80;;
19059;SDS011;9663;48.996;8.334;2022-10-30T17:54:40;5.72;;;2.85;;
19059;SDS011;9663;48.996;8.334;2022-10-30T17:57:12;9.20;;;3.80;;
19059;SDS011;9663;48.996;8.334;2022-10-30T17:59:39;8.77;;;4.75;;
19059;SDS011;9663;48.996;8.334;2022-10-30T18:04:39;8.73;;;4.28;;
19059;SDS011;9663;48.996;8.334;2022-10-30T18:07:09;7.88;;;4.45;;
19059;SDS011;9663;48.996;8.334;2022-10-30T18:09:36;7.88;;;4.22;;
19059;SDS011;9663;48.996;8.334;2022-10-30T18:12:03;7.03;;;4.13;;
19059;SDS011;9663;48.996;8.334;2022-10-30T18:14:31;6.97;;;3.20;;
19059;SDS011;9663;48.996;8.334;2022-10-30T18:16:56;7.55;;;3.72;;
19059;SDS011;9663;48.996;8.334;2022-10-30T18:19:22;6.47;;;3.65;;
19059;SDS011;9663;48.996;8.334;2022-10-30T18:21:48;7.32;;;3.85;;
19059;SDS011;9663;48.996;8.334;2022-10-30T18:24:16;7.18;;;3.85;;
19059;SDS011;9663;48.996;8.334;2022-10-30T18:26:42;7.30;;;3.63;;
19059;SDS011;9663;48.996;8.334;2022-10-30T18:29:12;6.70;;;3.63;;
19059;SDS011;9663;48.996;8.334;2022-10-30T18:31:38;7.95;;;3.60;;
19059;SDS011;9663;48.996;8.334;2022-10-30T18:34:09;6.90;;;3.70;;
19059;SDS011;9663;48.996;8.334;2022-10-30T18:36:40;6.68;;;3.35;;
19059;SDS011;9663;48.996;8.334;2022-10-30T18:39:06;6.43;;;2.97;;